Time;durP1;ratioP1;P1;durP2;ratioP2;P2;SDS_P1;SDS_P2;PMS_P1;PMS_P2;Temp;Humidity;BMP_temperature;BMP_pressure;BME280_temperature;BME280_humidity;BME280_pressure;Samples;Min_cycle;Max_cycle;Signal;HPM_P1;HPM_P2
2022/06/25 00:01:44;;;;;;;21.27;17.70;;;18.10;99.90;;;;;;4989946;28;20034;-73
2022/06/25 00:05:27;;;;;;;18.92;17.02;;;;;;;;;;5010378;28;20038;-73
2022/06/25 00:06:56;;;;;;;20.10;18.00;;;;;;;;;;5008154;28;20064;-73
2022/06/25 00:09:21;;;;;;;19.30;17.40;;;18.10;99.90;;;;;;4994334;28;20037;-73
2022/06/25 00:14:32;;;;;;;22.38;19.90;;;;;;;;;;4993735;28;20053;-73
2022/06/25 00:16:58;;;;;;;22.80;20.27;;;18.10;99.90;;;;;;5003118;28;20105;-73
2022/06/25 00:19:24;;;;;;;23.17;17.50;;;;;;;;;;4993021;28;20121;-73
2022/06/25 00:21:50;;;;;;;22.50;20.10;;;18.10;99.90;;;;;;4989854;28;20081;-72
2022/06/25 00:24:19;;;;;;;27.02;22.23;;;;;;;;;;5007745;28;20050;-72
2022/06/25 00:26:45;;;;;;;24.30;21.75;;;;;;;;;;4993442;28;20026;-73
2022/06/25 00:29:11;;;;;;;23.35;20.90;;;;;;;;;;5009736;28;20065;-72
2022/06/25 00:31:37;;;;;;;23.10;19.88;;;;;;;;;;5009581;28;20038;-72
2022/06/25 00:34:04;;;;;;;24.27;20.35;;;;;;;;;;4992648;28;20428;-72
2022/06/25 00:36:30;;;;;;;24.95;21.00;;;18.00;99.90;;;;;;4996049;28;20053;-72
2022/06/25 00:38:55;;;;;;;23.48;19.05;;;18.10;99.90;;;;;;5011143;28;20045;-72
2022/06/25 00:41:21;;;;;;;22.63;18.92;;;;;;;;;;5010238;28;20029;-72
2022/06/25 00:43:48;;;;;;;21.20;18.40;;;18.10;99.90;;;;;;5009557;28;20444;-74
2022/06/25 00:46:14;;;;;;;23.15;20.27;;;;;;;;;;5009872;28;20079;-73
2022/06/25 00:48:40;;;;;;;20.70;18.48;;;;;;;;;;5009559;28;20038;-72
2022/06/25 00:51:10;;;;;;;21.10;18.92;;;;;;;;;;5011249;28;20117;-73
2022/06/25 00:53:36;;;;;;;21.30;18.80;;;;;;;;;;5008142;28;20097;-73
2022/06/25 00:56:05;;;;;;;21.25;18.88;;;17.80;99.90;;;;;;5011897;28;20021;-72
2022/06/25 00:58:32;;;;;;;20.98;18.80;;;;;;;;;;5007544;28;20038;-72
2022/06/25 01:00:59;;;;;;;24.00;19.65;;;17.80;99.90;;;;;;5009486;28;20025;-73
2022/06/25 01:03:25;;;;;;;20.27;18.20;;;;;;;;;;4990987;28;20037;-72
2022/06/25 01:05:51;;;;;;;21.38;19.08;;;;;;;;;;5022190;28;20112;-73
2022/06/25 01:08:19;;;;;;;22.13;19.60;;;;;;;;;;5009675;28;20046;-73
2022/06/25 01:10:45;;;;;;;22.40;20.10;;;;;;;;;;5007740;28;20038;-72
2022/06/25 01:13:11;;;;;;;20.88;18.67;;;;;;;;;;5012107;28;20034;-72
2022/06/25 01:15:38;;;;;;;21.67;19.13;;;;;;;;;;5008504;28;20026;-73
2022/06/25 01:18:07;;;;;;;23.02;20.20;;;17.60;99.90;;;;;;4990025;28;20041;-73
2022/06/25 01:20:34;;;;;;;22.48;20.13;;;17.80;99.90;;;;;;4988861;28;20034;-72
2022/06/25 01:23:00;;;;;;;28.65;21.33;;;;;;;;;;5007613;28;20057;-72
2022/06/25 01:25:32;;;;;;;25.25;19.48;;;;;;;;;;5008161;28;21305;-72
2022/06/25 01:27:58;;;;;;;23.05;20.65;;;;;;;;;;5009350;28;20470;-73
2022/06/25 01:30:24;;;;;;;23.63;20.88;;;;;;;;;;5007346;28;20030;-73
2022/06/25 01:32:52;;;;;;;26.27;20.90;;;;;;;;;;4996950;28;20046;-73
2022/06/25 01:35:18;;;;;;;25.52;21.58;;;;;;;;;;4992607;28;20026;-73
2022/06/25 01:37:44;;;;;;;22.67;19.08;;;;;;;;;;5007564;28;20054;-73
2022/06/25 01:40:10;;;;;;;25.52;21.48;;;;;;;;;;4993542;28;20038;-73
2022/06/25 01:45:21;;;;;;;22.40;20.02;;;;;;;;;;5007732;28;20081;-73
2022/06/25 01:47:47;;;;;;;20.73;18.52;;;;;;;;;;5007663;28;20060;-74
2022/06/25 01:50:13;;;;;;;20.73;18.30;;;;;;;;;;5010318;28;20478;-73
2022/06/25 01:52:40;;;;;;;23.25;18.85;;;;;;;;;;5010754;28;20109;-73
2022/06/25 01:55:06;;;;;;;23.17;18.38;;;;;;;;;;5011787;28;20433;-73
2022/06/25 01:57:32;;;;;;;21.40;18.05;;;;;;;;;;5005808;28;20038;-73
2022/06/25 01:59:59;;;;;;;19.90;17.73;;;;;;;;;;5009290;28;20095;-73
2022/06/25 02:02:25;;;;;;;19.55;17.42;;;;;;;;;;5009777;28;20883;-73
2022/06/25 02:04:51;;;;;;;19.95;17.92;;;;;;;;;;5012846;28;20057;-73
2022/06/25 02:07:17;;;;;;;20.35;17.75;;;;;;;;;;4996471;28;20139;-73
2022/06/25 02:09:43;;;;;;;20.00;17.83;;;;;;;;;;5008531;28;20164;-73
2022/06/25 02:12:09;;;;;;;20.55;18.35;;;;;;;;;;5011119;28;20458;-72
2022/06/25 02:14:35;;;;;;;21.13;18.20;;;;;;;;;;5003522;28;20140;-73
2022/06/25 02:17:01;;;;;;;19.17;17.08;;;;;;;;;;5005898;28;20465;-73
2022/06/25 02:19:27;;;;;;;19.90;17.58;;;;;;;;;;5010340;28;20133;-72
2022/06/25 02:21:53;;;;;;;18.88;16.23;;;;;;;;;;5009902;28;20033;-72
2022/06/25 02:24:19;;;;;;;17.88;15.98;;;;;;;;;;5008368;28;20038;-72
2022/06/25 02:26:45;;;;;;;20.02;17.08;;;;;;;;;;4997604;28;20516;-73
2022/06/25 02:29:11;;;;;;;21.15;17.98;;;;;;;;;;5009723;28;20034;-72
2022/06/25 02:31:37;;;;;;;20.38;17.23;;;;;;;;;;5009319;28;20026;-72
2022/06/25 02:34:03;;;;;;;20.88;16.20;;;;;;;;;;5009777;28;20434;-73
2022/06/25 02:36:29;;;;;;;17.58;15.75;;;;;;;;;;5010198;28;20097;-73
2022/06/25 02:38:55;;;;;;;18.83;16.85;;;;;;;;;;4974566;28;20066;-73
2022/06/25 02:41:21;;;;;;;17.95;15.95;;;;;;;;;;5009368;28;20074;-73
2022/06/25 02:43:47;;;;;;;19.73;15.95;;;;;;;;;;5008934;28;20025;-73
2022/06/25 02:46:13;;;;;;;16.70;15.00;;;;;;;;;;5008619;28;20022;-73
2022/06/25 02:48:39;;;;;;;17.48;15.63;;;;;;;;;;4971025;28;20069;-73
2022/06/25 02:51:05;;;;;;;17.80;14.90;;;;;;;;;;5010965;28;20038;-73
2022/06/25 02:53:31;;;;;;;34.72;31.10;;;;;;;;;;5008827;28;20084;-72
2022/06/25 02:58:54;;;;;;;18.38;16.55;;;;;;;;;;5010295;28;20092;-73
2022/06/25 03:01:21;;;;;;;22.23;15.18;;;;;;;;;;5010464;28;20084;-73
2022/06/25 03:03:47;;;;;;;20.70;17.67;;;;;;;;;;4993967;28;20026;-73
2022/06/25 03:06:13;;;;;;;20.80;18.77;;;;;;;;;;5014945;28;20401;-73
2022/06/25 03:08:39;;;;;;;21.17;17.70;;;;;;;;;;5010682;28;20508;-73
2022/06/25 03:11:05;;;;;;;19.98;17.27;;;17.20;99.90;;;;;;5010133;28;20038;-73
2022/06/25 03:13:34;;;;;;;17.17;15.43;;;;;;;;;;5011886;28;20048;-74
2022/06/25 03:16:00;;;;;;;17.60;15.50;;;;;;;;;;5005260;28;20573;-74
2022/06/25 03:18:26;;;;;;;14.90;12.90;;;;;;;;;;4992680;28;20034;-74
2022/06/25 03:20:52;;;;;;;17.75;12.80;;;;;;;;;;5011571;28;20034;-74
2022/06/25 03:23:19;;;;;;;17.38;11.95;;;;;;;;;;5008650;28;20182;-74
2022/06/25 03:25:45;;;;;;;14.95;12.25;;;;;;;;;;5006990;28;20066;-74
2022/06/25 03:28:11;;;;;;;15.68;12.23;;;;;;;;;;5011908;28;20133;-73
2022/06/25 03:30:37;;;;;;;14.93;11.52;;;;;;;;;;5010781;28;20037;-74
2022/06/25 03:33:03;;;;;;;13.38;11.00;;;;;;;;;;5011885;28;20030;-74
2022/06/25 03:35:29;;;;;;;12.43;9.70;;;;;;;;;;5009864;28;20033;-73
2022/06/25 03:37:56;;;;;;;13.23;10.70;;;;;;;;;;5011467;28;20038;-73
2022/06/25 03:40:21;;;;;;;18.48;10.80;;;;;;;;;;5007508;28;20061;-72
2022/06/25 03:42:48;;;;;;;12.23;9.98;;;;;;;;;;5011369;28;20038;-72
2022/06/25 03:45:14;;;;;;;12.20;9.57;;;17.00;99.90;;;;;;5011656;28;20029;-72
2022/06/25 03:47:40;;;;;;;10.43;9.43;;;;;;;;;;5012223;28;20045;-73
2022/06/25 03:50:07;;;;;;;13.07;9.27;;;;;;;;;;5008240;28;20089;-75
2022/06/25 03:52:33;;;;;;;10.75;9.10;;;17.20;99.90;;;;;;4995985;28;20041;-74
2022/06/25 03:54:59;;;;;;;9.82;8.02;;;17.00;99.90;;;;;;5010799;28;20488;-73
2022/06/25 03:57:25;;;;;;;10.27;9.18;;;;;;;;;;5012826;28;20030;-72
2022/06/25 03:59:51;;;;;;;11.15;9.05;;;;;;;;;;5010372;28;20137;-73
2022/06/25 04:02:17;;;;;;;11.20;9.27;;;17.30;99.90;;;;;;5012282;28;20042;-73
2022/06/25 04:04:43;;;;;;;9.23;8.32;;;17.30;99.90;;;;;;5009312;28;20026;-73
2022/06/25 04:07:09;;;;;;;11.10;9.38;;;;;;;;;;5008164;28;20548;-73
2022/06/25 04:09:35;;;;;;;9.55;8.55;;;;;;;;;;5011133;28;20534;-73
2022/06/25 04:12:01;;;;;;;11.40;8.30;;;17.30;99.90;;;;;;5011646;28;20026;-73
2022/06/25 04:14:27;;;;;;;11.38;8.63;;;;;;;;;;4995824;28;20033;-73
2022/06/25 04:16:55;;;;;;;9.63;7.93;;;;;;;;;;5003336;28;20461;-73
2022/06/25 04:19:21;;;;;;;9.48;8.48;;;;;;;;;;5007043;28;20058;-73
2022/06/25 04:21:49;;;;;;;9.73;7.95;;;;;;;;;;5007887;28;20088;-73
2022/06/25 04:24:15;;;;;;;9.48;7.80;;;;;;;;;;5012546;28;20118;-73
2022/06/25 04:26:41;;;;;;;8.88;6.80;;;;;;;;;;4993433;28;20061;-75
2022/06/25 04:29:08;;;;;;;10.73;6.45;;;;;;;;;;4993787;28;20034;-74
2022/06/25 04:31:35;;;;;;;7.50;6.78;;;;;;;;;;4985491;28;20563;-73
2022/06/25 04:34:01;;;;;;;11.43;7.50;;;17.50;99.90;;;;;;5013031;28;20033;-74
2022/06/25 04:36:27;;;;;;;9.27;6.75;;;;;;;;;;5009779;28;20381;-74
2022/06/25 04:38:53;;;;;;;10.52;6.93;;;;;;;;;;5009490;28;20026;-74
2022/06/25 04:41:20;;;;;;;9.27;6.72;;;;;;;;;;5009681;28;20042;-74
2022/06/25 04:43:46;;;;;;;8.52;6.43;;;;;;;;;;5011800;28;20030;-73
2022/06/25 04:46:12;;;;;;;7.97;6.90;;;17.60;99.90;;;;;;5010838;28;20026;-73
2022/06/25 04:48:39;;;;;;;9.27;6.68;;;;;;;;;;5010614;28;20042;-74
2022/06/25 04:51:05;;;;;;;7.65;6.85;;;;;;;;;;5011915;28;20038;-74
2022/06/25 04:53:31;;;;;;;7.38;6.63;;;;;;;;;;5011075;28;20038;-74
2022/06/25 04:55:56;;;;;;;10.45;7.03;;;17.80;99.90;;;;;;5008535;28;20066;-73
2022/06/25 04:58:22;;;;;;;6.93;5.82;;;;;;;;;;5007756;28;20088;-73
2022/06/25 05:00:49;;;;;;;7.03;6.15;;;;;;;;;;5012201;28;20030;-74
2022/06/25 05:03:15;;;;;;;7.82;5.45;;;;;;;;;;5010016;28;20030;-73
2022/06/25 05:05:40;;;;;;;8.32;5.90;;;17.90;99.90;;;;;;5006028;28;20072;-74
2022/06/25 05:08:07;;;;;;;11.90;6.63;;;;;;;;;;5010233;28;20486;-73
2022/06/25 05:10:33;;;;;;;7.97;6.40;;;;;;;;;;5010378;28;20065;-73
2022/06/25 05:13:14;;;;;;;8.20;6.60;;;;;;;;;;5008225;28;20033;-74
2022/06/25 05:15:41;;;;;;;9.18;5.72;;;;;;;;;;5004679;28;20022;-73
2022/06/25 05:18:08;;;;;;;11.63;5.80;;;17.90;99.90;;;;;;4984750;28;20061;-74
2022/06/25 05:20:36;;;;;;;9.90;5.82;;;;;;;;;;4993997;28;20030;-73
2022/06/25 05:23:02;;;;;;;6.68;5.20;;;;;;;;;;5009244;28;20034;-73
2022/06/25 05:25:29;;;;;;;8.55;6.10;;;;;;;;;;4999953;28;20037;-73
2022/06/25 05:27:55;;;;;;;12.95;6.50;;;;;;;;;;4982203;28;20042;-74
2022/06/25 05:30:22;;;;;;;7.80;5.95;;;;;;;;;;5005738;28;20386;-74
2022/06/25 05:32:48;;;;;;;8.43;5.43;;;;;;;;;;5004131;28;20030;-74
2022/06/25 05:35:14;;;;;;;6.15;5.43;;;;;;;;;;5008275;28;20052;-74
2022/06/25 05:37:39;;;;;;;61.90;43.30;;;;;;;;;;4997242;28;20052;-73
2022/06/25 05:40:07;;;;;;;15.43;9.70;;;18.30;99.90;;;;;;4998209;28;20097;-73
2022/06/25 05:42:34;;;;;;;7.72;5.75;;;18.20;99.90;;;;;;5009375;28;20113;-74
2022/06/25 05:45:00;;;;;;;8.27;5.75;;;;;;;;;;5005824;28;20500;-75
2022/06/25 05:47:26;;;;;;;6.38;5.45;;;;;;;;;;5006772;28;20035;-75
2022/06/25 05:49:52;;;;;;;9.98;5.70;;;;;;;;;;4965774;28;20545;-74
2022/06/25 05:52:18;;;;;;;6.72;5.00;;;;;;;;;;5002371;28;20057;-74
2022/06/25 05:54:43;;;;;;;7.32;5.75;;;18.60;99.90;;;;;;4986246;28;20923;-74
2022/06/25 05:57:09;;;;;;;6.57;5.40;;;;;;;;;;5006491;28;20034;-73
2022/06/25 05:59:35;;;;;;;6.68;5.85;;;;;;;;;;4989463;28;20038;-74
2022/06/25 06:02:01;;;;;;;7.05;5.28;;;;;;;;;;5007237;28;20143;-74
2022/06/25 06:04:27;;;;;;;6.32;5.03;;;;;;;;;;5003050;28;20019;-74
2022/06/25 06:06:53;;;;;;;8.55;5.43;;;;;;;;;;4996485;28;20069;-73
2022/06/25 06:09:19;;;;;;;11.40;5.05;;;;;;;;;;5004693;28;20037;-74
2022/06/25 06:11:45;;;;;;;7.97;5.20;;;;;;;;;;5015283;28;20436;-73
2022/06/25 06:14:11;;;;;;;8.70;6.00;;;;;;;;;;5003957;28;20034;-72
2022/06/25 06:16:37;;;;;;;10.48;6.20;;;;;;;;;;5004464;28;20053;-73
2022/06/25 06:19:03;;;;;;;17.60;13.95;;;;;;;;;;5005295;28;20085;-73
2022/06/25 06:21:29;;;;;;;7.25;4.80;;;;;;;;;;4986078;28;20072;-72
2022/06/25 06:23:55;;;;;;;6.88;4.28;;;;;;;;;;4983803;28;20034;-73
2022/06/25 06:26:21;;;;;;;8.35;4.63;;;;;;;;;;5003450;28;20030;-74
2022/06/25 06:28:47;;;;;;;5.18;3.60;;;;;;;;;;5011224;28;20034;-74
2022/06/25 06:31:13;;;;;;;7.28;3.90;;;;;;;;;;5013233;28;20068;-74
2022/06/25 06:33:39;;;;;;;7.63;4.20;;;;;;;;;;5013774;28;20045;-74
2022/06/25 06:36:05;;;;;;;5.53;3.65;;;;;;;;;;5012139;28;20030;-74
2022/06/25 06:38:31;;;;;;;12.43;3.50;;;23.40;99.90;;;;;;5012039;28;20069;-73
2022/06/25 06:40:57;;;;;;;9.55;4.45;;;;;;;;;;4992497;28;20493;-73
2022/06/25 06:43:23;;;;;;;4.28;3.13;;;24.60;99.90;;;;;;5012498;28;20033;-74
2022/06/25 06:45:49;;;;;;;3.35;2.92;;;;;;;;;;5011653;28;20084;-74
2022/06/25 06:48:14;;;;;;;6.47;3.35;;;25.30;99.90;;;;;;5014051;28;20485;-73
2022/06/25 06:50:40;;;;;;;5.78;2.58;;;;;;;;;;5012608;28;20053;-72
2022/06/25 06:53:07;;;;;;;4.53;2.80;;;;;;;;;;5013105;28;20030;-73
2022/06/25 06:55:33;;;;;;;7.30;2.83;;;26.00;99.90;;;;;;5010329;28;20185;-73
2022/06/25 06:57:59;;;;;;;6.82;2.55;;;;;;;;;;5011481;28;20108;-73
2022/06/25 07:00:25;;;;;;;7.82;2.67;;;;;;;;;;5018794;28;20033;-72
2022/06/25 07:02:51;;;;;;;4.40;2.80;;;;;;;;;;5012120;28;20288;-73
2022/06/25 07:05:17;;;;;;;4.40;2.90;;;;;;;;;;5012652;28;20034;-72
2022/06/25 07:07:43;;;;;;;8.57;2.40;;;;;;;;;;5002817;28;20062;-73
2022/06/25 07:10:09;;;;;;;7.13;2.58;;;;;;;;;;5005362;28;20045;-73
2022/06/25 07:12:35;;;;;;;6.97;2.83;;;;;;;;;;4998729;28;20038;-73
2022/06/25 07:15:00;;;;;;;3.28;2.17;;;27.20;99.90;;;;;;5012315;28;20092;-74
2022/06/25 07:17:26;;;;;;;8.10;2.40;;;27.30;99.90;;;;;;5012586;28;20462;-73
2022/06/25 07:19:52;;;;;;;4.28;1.92;;;;;;;;;;5012776;28;20030;-74
2022/06/25 07:22:18;;;;;;;5.25;3.13;;;27.90;99.90;;;;;;5010658;28;20040;-73
2022/06/25 07:24:44;;;;;;;19.10;11.35;;;;;;;;;;5005360;28;20136;-73
2022/06/25 07:27:10;;;;;;;4.32;1.90;;;;;;;;;;5012130;28;20417;-74
2022/06/25 07:29:36;;;;;;;5.45;2.20;;;;;;;;;;5011474;28;20493;-73
2022/06/25 07:32:01;;;;;;;5.53;2.30;;;28.20;99.90;;;;;;5005413;28;20065;-72
2022/06/25 07:34:28;;;;;;;4.03;2.08;;;28.40;99.90;;;;;;4994082;28;20061;-73
2022/06/25 07:36:54;;;;;;;8.10;2.08;;;;;;;;;;5012867;28;20067;-74
2022/06/25 07:39:20;;;;;;;6.15;1.90;;;;;;;;;;4995926;28;20037;-74
2022/06/25 07:41:46;;;;;;;3.65;2.15;;;28.10;99.70;;;;;;5009361;28;20045;-73
2022/06/25 07:44:12;;;;;;;5.45;2.08;;;;;;;;;;5010846;28;20042;-74
2022/06/25 07:46:39;;;;;;;7.50;2.67;;;27.80;99.50;;;;;;5009700;28;20141;-74
2022/06/25 07:49:07;;;;;;;7.00;2.53;;;;;;;;;;5013955;28;20080;-74
2022/06/25 07:54:17;;;;;;;8.38;2.90;;;28.20;99.90;;;;;;5000541;28;20129;-72
2022/06/25 07:56:43;;;;;;;15.00;3.70;;;;;;;;;;5006274;28;20114;-73
2022/06/25 07:59:09;;;;;;;5.50;2.83;;;;;;;;;;5014170;28;20030;-74
2022/06/25 08:01:35;;;;;;;6.60;3.08;;;;;;;;;;5012859;28;20041;-74
2022/06/25 08:04:01;;;;;;;3.97;2.15;;;;;;;;;;5010316;28;20030;-73
2022/06/25 08:06:27;;;;;;;6.53;2.30;;;;;;;;;;5009684;28;20049;-74
2022/06/25 08:08:53;;;;;;;7.28;2.53;;;28.80;99.90;;;;;;5009457;28;20029;-75
2022/06/25 08:11:19;;;;;;;6.10;2.33;;;;;;;;;;5012109;28;20536;-74
2022/06/25 08:13:45;;;;;;;6.70;2.58;;;;;;;;;;5010763;28;20112;-73
2022/06/25 08:16:11;;;;;;;7.50;3.05;;;;;;;;;;5010520;28;20381;-74
2022/06/25 08:18:38;;;;;;;5.20;2.42;;;;;;;;;;5010342;28;20045;-74
2022/06/25 08:21:05;;;;;;;7.00;2.42;;;27.80;99.90;;;;;;5011828;28;20029;-74
2022/06/25 08:23:31;;;;;;;6.10;2.72;;;;;;;;;;5009075;28;20490;-73
2022/06/25 08:25:57;;;;;;;3.75;2.30;;;;;;;;;;5012025;28;20065;-73
2022/06/25 08:28:24;;;;;;;5.00;2.85;;;;;;;;;;5008605;28;20473;-73
2022/06/25 08:30:50;;;;;;;6.05;2.65;;;;;;;;;;5001536;28;20088;-73
2022/06/25 08:33:16;;;;;;;5.82;2.60;;;;;;;;;;5011460;28;20038;-73
2022/06/25 08:35:42;;;;;;;4.18;1.98;;;;;;;;;;5012239;28;20480;-74
2022/06/25 08:38:08;;;;;;;2.47;1.60;;;;;;;;;;4995961;28;20479;-73
2022/06/25 08:40:34;;;;;;;5.93;2.20;;;;;;;;;;5011299;28;20088;-73
2022/06/25 08:43:00;;;;;;;8.65;2.00;;;30.50;91.10;;;;;;5011631;28;20121;-73
2022/06/25 08:45:26;;;;;;;5.68;2.67;;;;;;;;;;5008711;28;20037;-73
2022/06/25 08:47:52;;;;;;;6.57;2.30;;;30.90;99.90;;;;;;5004438;28;20030;-73
2022/06/25 08:50:23;;;;;;;4.57;2.13;;;31.10;96.90;;;;;;5007626;28;20053;-73
2022/06/25 08:52:50;;;;;;;3.40;2.60;;;;;;;;;;5006563;28;20034;-74
2022/06/25 08:55:44;;;;;;;4.90;1.75;;;31.10;93.10;;;;;;5011236;28;20045;-74
2022/06/25 08:58:12;;;;;;;4.05;1.77;;;;;;;;;;5004620;28;20030;-73
2022/06/25 09:00:43;;;;;;;6.00;1.92;;;31.70;92.70;;;;;;5009680;28;20045;-74
2022/06/25 09:03:09;;;;;;;4.18;1.95;;;31.60;93.20;;;;;;5010043;28;20030;-74
2022/06/25 09:05:36;;;;;;;6.03;2.20;;;;;;;;;;5011701;28;20105;-73
2022/06/25 09:08:06;;;;;;;3.88;2.03;;;;;;;;;;5010121;28;20116;-74
2022/06/25 09:10:33;;;;;;;4.80;1.88;;;31.90;96.20;;;;;;5008354;28;20050;-73
2022/06/25 09:13:00;;;;;;;3.75;1.70;;;;;;;;;;5010827;28;20120;-73
2022/06/25 09:15:33;;;;;;;3.92;1.70;;;31.60;99.60;;;;;;5008413;28;20037;-73
2022/06/25 09:18:06;;;;;;;4.07;1.30;;;31.30;95.60;;;;;;4992281;28;20022;-73
2022/06/25 09:20:32;;;;;;;5.10;1.58;;;31.10;95.60;;;;;;4978485;28;20054;-73
2022/06/25 09:23:05;;;;;;;4.13;2.25;;;30.80;97.10;;;;;;5009486;28;20030;-73
2022/06/25 09:25:33;;;;;;;3.58;1.70;;;30.60;95.60;;;;;;5000333;28;20022;-73
2022/06/25 09:27:59;;;;;;;6.03;1.73;;;30.50;99.10;;;;;;5010370;28;20432;-73
2022/06/25 09:30:29;;;;;;;5.65;1.45;;;30.10;99.20;;;;;;5008356;28;20393;-73
2022/06/25 09:33:02;;;;;;;3.42;2.00;;;30.10;99.80;;;;;;5001415;28;20068;-73
2022/06/25 09:35:29;;;;;;;6.50;2.28;;;29.80;99.90;;;;;;5010372;28;20034;-73
2022/06/25 09:38:01;;;;;;;3.90;1.70;;;;;;;;;;5009152;28;20087;-73
2022/06/25 09:40:27;;;;;;;5.15;1.90;;;;;;;;;;5010795;28;20069;-73
2022/06/25 09:42:53;;;;;;;4.15;1.60;;;;;;;;;;5011868;28;20461;-73
2022/06/25 09:45:18;;;;;;;3.30;1.52;;;29.10;99.90;;;;;;5008509;28;20026;-73
2022/06/25 09:47:45;;;;;;;4.82;1.30;;;;;;;;;;5011301;28;20537;-73
2022/06/25 09:50:14;;;;;;;5.25;1.02;;;29.90;99.90;;;;;;5009428;28;20041;-73
2022/06/25 09:52:54;;;;;;;2.22;1.30;;;;;;;;;;4991358;28;20038;-74
2022/06/25 09:55:24;;;;;;;2.85;0.90;;;30.00;99.90;;;;;;4996763;28;20026;-74
2022/06/25 09:57:54;;;;;;;3.97;0.93;;;29.90;99.90;;;;;;4973890;28;20030;-74
2022/06/25 10:00:21;;;;;;;3.72;1.00;;;29.60;99.90;;;;;;4976297;28;20442;-73
2022/06/25 10:02:48;;;;;;;3.45;0.63;;;29.50;99.90;;;;;;4992038;28;20042;-73
2022/06/25 10:05:21;;;;;;;2.97;0.77;;;29.90;99.90;;;;;;4997618;28;20084;-73
2022/06/25 10:08:00;;;;;;;5.55;1.23;;;29.90;99.90;;;;;;5010490;28;20389;-71
2022/06/25 10:10:38;;;;;;;5.32;2.45;;;29.60;99.90;;;;;;5005434;28;20040;-72
2022/06/25 10:13:03;;;;;;;3.13;1.60;;;29.20;99.90;;;;;;5013877;28;20033;-72
2022/06/25 10:15:30;;;;;;;2.08;0.90;;;29.00;99.90;;;;;;5013524;28;20026;-72
2022/06/25 10:17:58;;;;;;;2.55;0.80;;;;;;;;;;5012557;28;20022;-72
2022/06/25 10:20:24;;;;;;;3.13;0.80;;;;;;;;;;5013386;28;20064;-71
2022/06/25 10:22:51;;;;;;;1.85;0.88;;;;;;;;;;4998022;28;20175;-72
2022/06/25 10:25:27;;;;;;;3.83;1.40;;;;;;;;;;5011400;28;20102;-73
2022/06/25 10:28:03;;;;;;;4.75;0.93;;;;;;;;;;5015715;28;20508;-73
2022/06/25 10:30:39;;;;;;;2.30;1.15;;;;;;;;;;5005874;28;20412;-73
2022/06/25 10:33:06;;;;;;;2.45;1.05;;;;;;;;;;5009982;28;20406;-74
2022/06/25 10:35:33;;;;;;;4.32;1.27;;;;;;;;;;5009990;28;20444;-74
2022/06/25 10:38:04;;;;;;;4.97;1.63;;;;;;;;;;5008364;28;20036;-73
2022/06/25 10:40:47;;;;;;;5.07;1.17;;;;;;;;;;5007206;28;20160;-72
2022/06/25 10:43:42;;;;;;;3.15;0.90;;;27.20;99.90;;;;;;4981451;28;20034;-72
2022/06/25 10:46:24;;;;;;;1.70;0.80;;;;;;;;;;5005818;28;20026;-73
2022/06/25 10:48:49;;;;;;;;;;;;;;;;;;5000758;28;20041;-72
2022/06/25 10:51:26;;;;;;;2.78;1.15;;;;;;;;;;5001475;28;19918;-72
2022/06/25 10:53:55;;;;;;;5.32;1.20;;;;;;;;;;5009261;28;20433;-72
2022/06/25 10:56:21;;;;;;;5.18;0.93;;;;;;;;;;4989732;28;20461;-73
2022/06/25 10:58:50;;;;;;;3.08;0.80;;;;;;;;;;5011738;28;20062;-72
2022/06/25 11:01:27;;;;;;;2.90;0.90;;;;;;;;;;4995153;28;20380;-72
2022/06/25 11:03:54;;;;;;;5.55;0.70;;;;;;;;;;5009652;28;20018;-73
2022/06/25 11:06:29;;;;;;;3.55;1.20;;;;;;;;;;5005766;28;20072;-72
2022/06/25 11:08:56;;;;;;;4.00;2.15;;;;;;;;;;5014289;28;20034;-72
2022/06/25 11:11:29;;;;;;;2.47;0.70;;;;;;;;;;5003856;28;20504;-72
2022/06/25 11:13:55;;;;;;;2.03;0.60;;;;;;;;;;4991496;28;20121;-72
2022/06/25 11:16:22;;;;;;;3.97;0.95;;;;;;;;;;5011139;28;20036;-72
2022/06/25 11:18:50;;;;;;;2.17;0.90;;;;;;;;;;5013639;28;20370;-72
2022/06/25 11:21:25;;;;;;;2.33;1.55;;;;;;;;;;5008906;28;20198;-72
2022/06/25 11:23:52;;;;;;;3.15;1.25;;;;;;;;;;5011039;28;20040;-72
2022/06/25 11:29:03;;;;;;;6.50;1.15;;;;;;;;;;5013018;28;20036;-73
2022/06/25 11:31:29;;;;;;;2.78;1.00;;;;;;;;;;4990024;28;20367;-73
2022/06/25 11:33:55;;;;;;;15.90;10.98;;;;;;;;;;5003910;28;20445;-72
2022/06/25 11:36:21;;;;;;;24.67;18.08;;;;;;;;;;5008829;28;20037;-72
2022/06/25 11:38:51;;;;;;;3.70;1.40;;;;;;;;;;5009701;28;20030;-73
2022/06/25 11:41:29;;;;;;;2.17;1.35;;;;;;;;;;5009775;28;20096;-73
2022/06/25 11:43:55;;;;;;;2.95;1.20;;;;;;;;;;5007798;28;20065;-73
2022/06/25 11:46:21;;;;;;;4.50;1.50;;;27.40;99.90;;;;;;5008984;28;20045;-73
2022/06/25 11:48:48;;;;;;;4.65;1.90;;;26.60;99.90;;;;;;4993084;28;20814;-73
2022/06/25 11:51:25;;;;;;;4.95;1.40;;;26.30;99.90;;;;;;4991315;28;20077;-74
2022/06/25 11:53:52;;;;;;;4.88;1.50;;;26.20;99.90;;;;;;5010609;28;20041;-74
2022/06/25 11:56:18;;;;;;;2.42;1.23;;;;;;;;;;5011227;28;20088;-73
2022/06/25 11:58:44;;;;;;;4.28;1.65;;;25.90;99.90;;;;;;5010667;28;20033;-73
2022/06/25 12:01:10;;;;;;;3.80;1.23;;;;;;;;;;5009170;28;20042;-73
2022/06/25 12:03:36;;;;;;;4.55;1.60;;;;;;;;;;5011390;28;20469;-73
2022/06/25 12:06:03;;;;;;;3.83;1.27;;;25.40;99.90;;;;;;5013026;28;20025;-73
2022/06/25 12:08:29;;;;;;;4.57;3.00;;;24.80;99.90;;;;;;5009900;28;20044;-73
2022/06/25 12:10:55;;;;;;;6.82;3.13;;;;;;;;;;5011570;28;20038;-73
2022/06/25 12:13:22;;;;;;;6.13;2.83;;;;;;;;;;4995644;28;20038;-73
2022/06/25 12:15:56;;;;;;;5.25;2.85;;;24.50;99.90;;;;;;5006055;28;20030;-73
2022/06/25 12:18:35;;;;;;;7.68;2.70;;;24.10;99.90;;;;;;4986306;28;20388;-73
2022/06/25 12:21:06;;;;;;;5.80;2.70;;;24.00;99.90;;;;;;5012107;28;20021;-73
2022/06/25 12:23:52;;;;;;;6.75;3.30;;;;;;;;;;4993824;28;20120;-72
2022/06/25 12:26:24;;;;;;;5.90;3.00;;;;;;;;;;5010484;28;20036;-73
2022/06/25 12:28:50;;;;;;;4.28;3.38;;;;;;;;;;5011450;28;20362;-73
2022/06/25 12:31:17;;;;;;;5.00;3.08;;;24.40;99.90;;;;;;5011182;28;20481;-72
2022/06/25 12:33:52;;;;;;;8.25;3.25;;;;;;;;;;4994562;28;20145;-72
2022/06/25 12:36:19;;;;;;;6.47;3.28;;;;;;;;;;5010884;28;20120;-72
2022/06/25 12:38:45;;;;;;;6.95;3.42;;;;;;;;;;5004280;28;20041;-72
2022/06/25 12:41:12;;;;;;;4.45;2.85;;;25.30;99.90;;;;;;5007247;28;20038;-72
2022/06/25 12:43:45;;;;;;;5.97;3.92;;;25.20;99.90;;;;;;5010990;28;20404;-73
2022/06/25 12:46:11;;;;;;;4.88;2.85;;;;;;;;;;5002557;28;20023;-73
2022/06/25 12:48:37;;;;;;;5.13;2.90;;;;;;;;;;5008865;28;20061;-72
2022/06/25 12:51:15;;;;;;;4.15;2.72;;;25.20;99.90;;;;;;5010944;28;20037;-73
2022/06/25 12:53:43;;;;;;;7.13;3.13;;;25.30;99.90;;;;;;4993730;28;20092;-73
2022/06/25 12:56:10;;;;;;;4.00;2.90;;;;;;;;;;5007460;28;20127;-73
2022/06/25 12:58:40;;;;;;;5.72;3.03;;;25.40;99.90;;;;;;5011628;28;20133;-73
2022/06/25 13:01:23;;;;;;;4.35;3.13;;;;;;;;;;5010722;28;20485;-73
2022/06/25 13:03:49;;;;;;;8.13;3.60;;;;;;;;;;4983716;28;20034;-72
2022/06/25 13:06:16;;;;;;;6.72;2.95;;;;;;;;;;5005788;28;20359;-72
2022/06/25 13:08:42;;;;;;;4.03;3.30;;;;;;;;;;5010200;28;20128;-72
2022/06/25 13:11:22;;;;;;;4.82;3.10;;;25.20;99.90;;;;;;4991783;28;20042;-72
2022/06/25 13:13:48;;;;;;;6.10;3.28;;;;;;;;;;4995779;28;20030;-72
2022/06/25 13:16:14;;;;;;;6.80;3.10;;;;;;;;;;5011419;28;20044;-72
2022/06/25 13:18:41;;;;;;;4.78;2.88;;;25.40;99.90;;;;;;5011350;28;20044;-72
2022/06/25 13:21:07;;;;;;;3.67;2.90;;;;;;;;;;5011733;28;20121;-72
2022/06/25 13:23:33;;;;;;;5.05;2.80;;;;;;;;;;5009808;28;20037;-72
2022/06/25 13:25:59;;;;;;;6.20;3.30;;;26.00;99.90;;;;;;5010482;28;20037;-72
2022/06/25 13:28:25;;;;;;;4.20;2.90;;;25.80;99.90;;;;;;5010280;28;20037;-72
2022/06/25 13:30:51;;;;;;;4.40;3.53;;;;;;;;;;5011516;28;20045;-72
2022/06/25 13:33:17;;;;;;;5.97;2.97;;;;;;;;;;5011607;28;20036;-72
2022/06/25 13:35:43;;;;;;;5.38;2.80;;;;;;;;;;5009071;28;20120;-72
2022/06/25 13:38:09;;;;;;;3.63;2.75;;;;;;;;;;5009100;28;20478;-72
2022/06/25 13:40:35;;;;;;;5.70;2.85;;;;;;;;;;5011553;28;20084;-72
2022/06/25 13:43:01;;;;;;;7.30;3.05;;;;;;;;;;5010136;28;20040;-72
2022/06/25 13:45:27;;;;;;;5.88;3.08;;;;;;;;;;5010091;28;20131;-72
2022/06/25 13:47:53;;;;;;;3.25;2.80;;;;;;;;;;4986585;28;20493;-72
2022/06/25 13:50:19;;;;;;;4.63;2.83;;;;;;;;;;5009898;28;20042;-72
2022/06/25 13:52:45;;;;;;;5.07;2.45;;;;;;;;;;5002595;28;20125;-71
2022/06/25 13:55:11;;;;;;;3.90;2.80;;;;;;;;;;4982568;28;20385;-75
2022/06/25 13:57:37;;;;;;;4.75;2.60;;;;;;;;;;5006008;28;20022;-75
2022/06/25 14:00:05;;;;;;;5.78;2.65;;;25.10;99.90;;;;;;5009937;28;20358;-75
2022/06/25 14:02:31;;;;;;;3.65;2.30;;;;;;;;;;4993494;28;20026;-76
2022/06/25 14:04:56;;;;;;;6.32;2.88;;;;;;;;;;5010942;28;20088;-76
2022/06/25 14:07:22;;;;;;;4.32;2.45;;;26.10;99.90;;;;;;5008664;28;20136;-77
2022/06/25 14:09:48;;;;;;;3.15;2.40;;;26.20;99.90;;;;;;5004286;28;20095;-77
2022/06/25 14:12:14;;;;;;;10.98;2.88;;;;;;;;;;4991363;28;20030;-80
2022/06/25 14:14:39;;;;;;;3.75;1.83;;;26.30;99.90;;;;;;5008283;28;20462;-71
2022/06/25 14:17:05;;;;;;;5.88;2.80;;;;;;;;;;5008161;28;20065;-72